CPA665 VHHH-VGHS
Flight info
| Callsign | CPA665 |
|---|---|
| Flight time | 3h 46m |
| Altitude | 36000 |
| Route | PECAN V10 SIKOU/K0906S1100 R339 BSE A599 LXI W148 XSJ W146 GULOT A599 LINSO/N0489F360 A599 LSO A201 AAT |
| Aircraft | A333/H-SDE3GHIJ2J3J5M1RVWXY/LB2D1 |
Departure
| Time | 2026-04-24 09:24 |
|---|---|
| Airport | Hong Kong International Airport (VHHH) |
Arrival
| Time | 2026-04-24 13:10 |
|---|---|
| Airport | Hazrat Shahjalal International Airport (VGHS) |
| Time | Latitude | Longitude | Altitude | Speed | Heading |
|---|---|---|---|---|---|
| 2026-04-24 09:01 | 22.30955 | 113.92491 | 41 ft | 0 kts | 115° |
| 2026-04-24 09:13 | 22.30959 | 113.92482 | 39 ft | 3 kts | 115° |
| 2026-04-24 09:13 | 22.30967 | 113.92464 | 37 ft | 3 kts | 115° |
| 2026-04-24 09:13 | 22.30975 | 113.92447 | 41 ft | 2 kts | 115° |
| 2026-04-24 09:13 | 22.30983 | 113.92428 | 38 ft | 3 kts | 142° |
| 2026-04-24 09:14 | 22.30999 | 113.92419 | 38 ft | 3 kts | 177° |
| 2026-04-24 09:14 | 22.31011 | 113.92420 | 38 ft | 0 kts | 200° |
| 2026-04-24 09:16 | 22.31010 | 113.92419 | 37 ft | 1 kts | 200° |
| 2026-04-24 09:16 | 22.30994 | 113.92412 | 36 ft | 5 kts | 204° |
| 2026-04-24 09:16 | 22.30941 | 113.92383 | 41 ft | 11 kts | 209° |
| 2026-04-24 09:16 | 22.30874 | 113.92343 | 41 ft | 11 kts | 207° |
| 2026-04-24 09:17 | 22.30805 | 113.92330 | 41 ft | 10 kts | 172° |
| 2026-04-24 09:17 | 22.30740 | 113.92337 | 41 ft | 11 kts | 193° |
| 2026-04-24 09:17 | 22.30692 | 113.92258 | 41 ft | 15 kts | 254° |
| 2026-04-24 09:17 | 22.30660 | 113.92152 | 41 ft | 15 kts | 251° |
| 2026-04-24 09:18 | 22.30626 | 113.92044 | 41 ft | 16 kts | 251° |
| 2026-04-24 09:18 | 22.30587 | 113.91924 | 41 ft | 19 kts | 251° |
| 2026-04-24 09:18 | 22.30540 | 113.91776 | 41 ft | 22 kts | 251° |
| 2026-04-24 09:18 | 22.30488 | 113.91620 | 41 ft | 22 kts | 250° |
| 2026-04-24 09:19 | 22.30435 | 113.91460 | 40 ft | 22 kts | 252° |
| 2026-04-24 09:19 | 22.30386 | 113.91301 | 40 ft | 22 kts | 251° |
| 2026-04-24 09:19 | 22.30335 | 113.91143 | 40 ft | 23 kts | 251° |
| 2026-04-24 09:19 | 22.30281 | 113.90975 | 41 ft | 24 kts | 251° |
| 2026-04-24 09:20 | 22.30224 | 113.90803 | 41 ft | 24 kts | 250° |
| 2026-04-24 09:20 | 22.30172 | 113.90634 | 41 ft | 23 kts | 250° |
| 2026-04-24 09:20 | 22.30120 | 113.90480 | 40 ft | 21 kts | 251° |
| 2026-04-24 09:20 | 22.30075 | 113.90338 | 40 ft | 19 kts | 251° |
| 2026-04-24 09:21 | 22.30033 | 113.90211 | 40 ft | 17 kts | 250° |
| 2026-04-24 09:21 | 22.29997 | 113.90096 | 40 ft | 17 kts | 251° |
| 2026-04-24 09:21 | 22.29971 | 113.90015 | 40 ft | 18 kts | 251° |
| 2026-04-24 09:21 | 22.29933 | 113.89896 | 40 ft | 16 kts | 251° |
| 2026-04-24 09:22 | 22.29896 | 113.89787 | 18 ft | 16 kts | 247° |
| 2026-04-24 09:22 | 22.29805 | 113.89745 | 41 ft | 16 kts | 166° |
| 2026-04-24 09:22 | 22.29699 | 113.89783 | 41 ft | 15 kts | 161° |
| 2026-04-24 09:22 | 22.29649 | 113.89866 | 41 ft | 19 kts | 86° |
| 2026-04-24 09:23 | 22.29723 | 113.90121 | 39 ft | 61 kts | 70° |
| 2026-04-24 09:23 | 22.29925 | 113.90737 | 41 ft | 112 kts | 71° |
| 2026-04-24 09:23 | 22.30234 | 113.91694 | 40 ft | 157 kts | 71° |
| 2026-04-24 09:23 | 22.30614 | 113.92940 | 286 ft | 186 kts | 71° |
| 2026-04-24 09:24 | 22.31022 | 113.94296 | 1073 ft | 188 kts | 70° |
| 2026-04-24 09:24 | 22.31424 | 113.95565 | 2219 ft | 170 kts | 70° |
| 2026-04-24 09:24 | 22.31814 | 113.96726 | 2965 ft | 168 kts | 70° |
| 2026-04-24 09:24 | 22.32255 | 113.97972 | 3298 ft | 187 kts | 69° |
| 2026-04-24 09:25 | 22.32730 | 113.99332 | 3701 ft | 204 kts | 71° |
| 2026-04-24 09:25 | 22.33204 | 114.00833 | 4150 ft | 218 kts | 72° |
| 2026-04-24 09:25 | 22.33683 | 114.02440 | 4569 ft | 232 kts | 76° |
| 2026-04-24 09:25 | 22.33807 | 114.04212 | 5020 ft | 241 kts | 102° |
| 2026-04-24 09:26 | 22.33144 | 114.05840 | 5734 ft | 237 kts | 133° |
| 2026-04-24 09:26 | 22.32042 | 114.07167 | 6449 ft | 239 kts | 138° |
| 2026-04-24 09:26 | 22.30710 | 114.08232 | 7079 ft | 239 kts | 159° |
| 2026-04-24 09:26 | 22.29082 | 114.08696 | 7601 ft | 247 kts | 177° |
| 2026-04-24 09:27 | 22.27329 | 114.08765 | 8085 ft | 259 kts | 183° |
| 2026-04-24 09:27 | 22.25473 | 114.08739 | 8556 ft | 272 kts | 184° |
| 2026-04-24 09:27 | 22.23549 | 114.08702 | 9289 ft | 280 kts | 182° |
| 2026-04-24 09:27 | 22.21576 | 114.08670 | 10139 ft | 285 kts | 184° |
| 2026-04-24 09:28 | 22.19540 | 114.08642 | 10687 ft | 301 kts | 183° |
| 2026-04-24 09:28 | 22.17415 | 114.08618 | 11100 ft | 318 kts | 184° |
| 2026-04-24 09:28 | 22.15140 | 114.08606 | 11420 ft | 336 kts | 184° |
| 2026-04-24 09:28 | 22.12740 | 114.08612 | 11721 ft | 352 kts | 183° |
| 2026-04-24 09:29 | 22.10233 | 114.08623 | 12112 ft | 366 kts | 183° |
| 2026-04-24 09:29 | 22.07651 | 114.08635 | 12567 ft | 375 kts | 182° |
| 2026-04-24 09:29 | 22.05026 | 114.08650 | 13079 ft | 379 kts | 182° |
| 2026-04-24 09:29 | 22.02368 | 114.08664 | 13628 ft | 384 kts | 182° |
| 2026-04-24 09:30 | 21.99681 | 114.08678 | 14108 ft | 387 kts | 182° |
| 2026-04-24 09:30 | 21.96083 | 114.08695 | 14754 ft | 392 kts | 182° |
| 2026-04-24 09:30 | 21.94270 | 114.08704 | 15080 ft | 394 kts | 182° |
| 2026-04-24 09:30 | 21.91511 | 114.08717 | 15570 ft | 398 kts | 182° |
| 2026-04-24 09:31 | 21.88723 | 114.08730 | 16039 ft | 402 kts | 182° |
| 2026-04-24 09:31 | 21.85923 | 114.08743 | 16623 ft | 401 kts | 183° |
| 2026-04-24 09:31 | 21.83123 | 114.08757 | 17150 ft | 403 kts | 183° |
| 2026-04-24 09:31 | 21.80302 | 114.08769 | 17578 ft | 407 kts | 183° |
| 2026-04-24 09:32 | 21.77452 | 114.08782 | 17999 ft | 411 kts | 183° |
| 2026-04-24 09:32 | 21.74581 | 114.08795 | 18397 ft | 415 kts | 183° |
| 2026-04-24 09:32 | 21.71715 | 114.08808 | 18750 ft | 418 kts | 183° |
| 2026-04-24 09:32 | 21.68795 | 114.08822 | 19110 ft | 421 kts | 182° |
| 2026-04-24 09:33 | 21.65852 | 114.08804 | 19479 ft | 423 kts | 186° |
| 2026-04-24 09:33 | 21.62939 | 114.08407 | 19823 ft | 422 kts | 194° |
| 2026-04-24 09:33 | 21.60063 | 114.07713 | 20178 ft | 424 kts | 196° |
| 2026-04-24 09:33 | 21.57190 | 114.06963 | 20566 ft | 425 kts | 197° |
| 2026-04-24 09:34 | 21.54301 | 114.06204 | 20923 ft | 428 kts | 196° |
| 2026-04-24 09:34 | 21.51392 | 114.05443 | 21204 ft | 432 kts | 196° |
| 2026-04-24 09:34 | 21.48454 | 114.04677 | 21540 ft | 435 kts | 196° |
| 2026-04-24 09:34 | 21.45524 | 114.03839 | 21886 ft | 436 kts | 200° |
| 2026-04-24 09:35 | 21.42758 | 114.02586 | 22194 ft | 436 kts | 210° |
| 2026-04-24 09:35 | 21.40123 | 114.00971 | 22519 ft | 437 kts | 213° |
| 2026-04-24 09:35 | 21.37549 | 113.99211 | 22857 ft | 440 kts | 216° |
| 2026-04-24 09:35 | 21.35001 | 113.97378 | 23182 ft | 442 kts | 216° |
| 2026-04-24 09:36 | 21.32455 | 113.95518 | 23509 ft | 445 kts | 216° |
| 2026-04-24 09:36 | 21.29878 | 113.93641 | 23776 ft | 447 kts | 217° |
| 2026-04-24 09:36 | 21.27323 | 113.91801 | 24392 ft | 439 kts | 218° |
| 2026-04-24 09:36 | 21.24792 | 113.89995 | 24854 ft | 437 kts | 218° |
| 2026-04-24 09:37 | 21.22276 | 113.88209 | 25113 ft | 440 kts | 218° |
| 2026-04-24 09:37 | 21.19707 | 113.86391 | 25383 ft | 442 kts | 218° |
| 2026-04-24 09:37 | 21.17134 | 113.84575 | 25675 ft | 444 kts | 218° |
| 2026-04-24 09:37 | 21.14557 | 113.82750 | 25985 ft | 445 kts | 219° |
| 2026-04-24 09:38 | 21.12120 | 113.80727 | 26285 ft | 442 kts | 226° |
| 2026-04-24 09:38 | 21.09971 | 113.78394 | 26579 ft | 439 kts | 233° |
| 2026-04-24 09:38 | 21.08186 | 113.75752 | 26891 ft | 437 kts | 242° |
| 2026-04-24 09:38 | 21.06816 | 113.72856 | 27105 ft | 438 kts | 249° |
| 2026-04-24 09:39 | 21.05687 | 113.69806 | 27310 ft | 441 kts | 251° |
| 2026-04-24 09:39 | 21.04661 | 113.66712 | 27622 ft | 441 kts | 252° |
| 2026-04-24 09:39 | 21.03682 | 113.63605 | 28037 ft | 439 kts | 253° |
| 2026-04-24 09:39 | 21.02724 | 113.60525 | 28598 ft | 435 kts | 253° |
| 2026-04-24 09:40 | 21.01763 | 113.57452 | 28883 ft | 436 kts | 253° |
| 2026-04-24 09:40 | 21.00786 | 113.54368 | 29086 ft | 439 kts | 253° |
| 2026-04-24 09:40 | 20.99794 | 113.51272 | 29362 ft | 440 kts | 253° |
| 2026-04-24 09:40 | 20.98796 | 113.48184 | 29763 ft | 438 kts | 253° |
| 2026-04-24 09:41 | 20.97797 | 113.45112 | 30170 ft | 436 kts | 253° |
| 2026-04-24 09:41 | 20.96799 | 113.42053 | 30491 ft | 435 kts | 253° |
| 2026-04-24 09:41 | 20.95816 | 113.39040 | 30813 ft | 433 kts | 253° |
| 2026-04-24 09:41 | 20.94824 | 113.35999 | 31129 ft | 433 kts | 253° |
| 2026-04-24 09:42 | 20.93832 | 113.32959 | 31440 ft | 432 kts | 253° |
| 2026-04-24 09:42 | 20.92839 | 113.29920 | 31738 ft | 431 kts | 253° |
| 2026-04-24 09:42 | 20.91850 | 113.26889 | 32057 ft | 431 kts | 253° |
| 2026-04-24 09:42 | 20.90861 | 113.23864 | 32362 ft | 430 kts | 253° |
| 2026-04-24 09:43 | 20.89876 | 113.20850 | 32675 ft | 429 kts | 253° |
| 2026-04-24 09:43 | 20.88903 | 113.17878 | 32991 ft | 428 kts | 253° |
| 2026-04-24 09:43 | 20.87919 | 113.14872 | 33287 ft | 427 kts | 253° |
| 2026-04-24 09:43 | 20.86935 | 113.11867 | 33602 ft | 427 kts | 253° |
| 2026-04-24 09:44 | 20.85954 | 113.08878 | 33960 ft | 425 kts | 253° |
| 2026-04-24 09:44 | 20.84981 | 113.05913 | 34329 ft | 421 kts | 253° |
| 2026-04-24 09:44 | 20.84011 | 113.02959 | 34578 ft | 421 kts | 253° |
| 2026-04-24 09:44 | 20.83040 | 113.00003 | 34780 ft | 421 kts | 253° |
| 2026-04-24 09:45 | 20.81072 | 112.94016 | 34825 ft | 432 kts | 252° |
| 2026-04-24 09:45 | 20.80073 | 112.90979 | 34971 ft | 434 kts | 252° |
| 2026-04-24 09:45 | 20.79070 | 112.87931 | 35198 ft | 434 kts | 251° |
| 2026-04-24 09:46 | 20.78076 | 112.84916 | 35455 ft | 433 kts | 251° |
| 2026-04-24 09:46 | 20.77074 | 112.81877 | 35718 ft | 432 kts | 251° |
| 2026-04-24 09:46 | 20.76072 | 112.78842 | 35910 ft | 433 kts | 251° |
| 2026-04-24 09:46 | 20.75067 | 112.75799 | 35950 ft | 433 kts | 251° |
| 2026-04-24 09:47 | 20.73064 | 112.69741 | 35941 ft | 431 kts | 251° |
| 2026-04-24 09:47 | 20.71076 | 112.63734 | 35941 ft | 431 kts | 251° |
| 2026-04-24 09:48 | 20.69072 | 112.57685 | 35950 ft | 431 kts | 251° |
| 2026-04-24 09:48 | 20.67066 | 112.51641 | 35943 ft | 431 kts | 251° |
| 2026-04-24 09:49 | 20.65072 | 112.45640 | 35943 ft | 431 kts | 251° |
| 2026-04-24 09:49 | 20.63059 | 112.39590 | 35941 ft | 432 kts | 251° |
| 2026-04-24 09:50 | 20.61043 | 112.33539 | 35941 ft | 432 kts | 251° |
| 2026-04-24 09:50 | 20.59035 | 112.27519 | 35938 ft | 432 kts | 251° |
| 2026-04-24 09:51 | 20.57156 | 112.21425 | 35941 ft | 432 kts | 257° |
| 2026-04-24 09:51 | 20.56605 | 112.15054 | 35934 ft | 432 kts | 272° |
| 2026-04-24 09:52 | 20.57931 | 112.08786 | 35935 ft | 438 kts | 288° |
| 2026-04-24 09:52 | 20.60429 | 112.02886 | 35938 ft | 439 kts | 291° |
| 2026-04-24 09:53 | 20.63137 | 111.97023 | 35942 ft | 440 kts | 292° |
| 2026-04-24 09:53 | 20.65843 | 111.91153 | 35944 ft | 440 kts | 292° |
| 2026-04-24 09:54 | 20.68518 | 111.85259 | 35944 ft | 440 kts | 291° |
| 2026-04-24 09:54 | 20.71160 | 111.79392 | 35948 ft | 440 kts | 291° |
| 2026-04-24 09:55 | 20.73809 | 111.73495 | 35944 ft | 439 kts | 291° |
| 2026-04-24 09:55 | 20.76444 | 111.67625 | 35951 ft | 439 kts | 291° |
| 2026-04-24 09:56 | 20.79088 | 111.61731 | 35951 ft | 439 kts | 291° |
| 2026-04-24 09:56 | 20.81716 | 111.55868 | 35949 ft | 439 kts | 291° |
| 2026-04-24 09:57 | 20.84203 | 111.49923 | 35948 ft | 436 kts | 285° |
| 2026-04-24 09:57 | 20.85935 | 111.43729 | 35948 ft | 434 kts | 282° |
| 2026-04-24 09:58 | 20.87498 | 111.37499 | 35946 ft | 434 kts | 281° |
| 2026-04-24 09:58 | 20.89029 | 111.31260 | 35947 ft | 434 kts | 281° |
| 2026-04-24 09:59 | 20.90571 | 111.25005 | 35947 ft | 434 kts | 281° |
| 2026-04-24 09:59 | 20.92107 | 111.18805 | 35948 ft | 434 kts | 281° |
| 2026-04-24 10:00 | 20.93654 | 111.12564 | 35946 ft | 434 kts | 281° |
| 2026-04-24 10:00 | 20.95198 | 111.06327 | 35947 ft | 433 kts | 282° |
| 2026-04-24 10:01 | 20.96761 | 111.00100 | 35944 ft | 433 kts | 282° |
| 2026-04-24 10:01 | 20.98338 | 110.93873 | 35944 ft | 433 kts | 282° |
| 2026-04-24 10:02 | 20.99913 | 110.87647 | 35953 ft | 433 kts | 282° |
| 2026-04-24 10:02 | 21.01483 | 110.81417 | 35952 ft | 433 kts | 282° |
| 2026-04-24 10:03 | 21.03039 | 110.75228 | 35950 ft | 434 kts | 282° |
| 2026-04-24 10:03 | 21.04604 | 110.68995 | 35968 ft | 434 kts | 282° |
| 2026-04-24 10:04 | 21.06166 | 110.62760 | 35948 ft | 434 kts | 282° |
| 2026-04-24 10:04 | 21.07729 | 110.56516 | 35946 ft | 434 kts | 282° |
| 2026-04-24 10:05 | 21.09280 | 110.50305 | 35960 ft | 434 kts | 282° |
| 2026-04-24 10:05 | 21.10836 | 110.44068 | 35951 ft | 433 kts | 282° |
| 2026-04-24 10:06 | 21.13234 | 110.34741 | 35952 ft | 434 kts | 286° |
| 2026-04-24 10:07 | 21.15759 | 110.28851 | 35952 ft | 438 kts | 292° |
| 2026-04-24 10:07 | 21.18628 | 110.23073 | 35951 ft | 439 kts | 294° |
| 2026-04-24 10:08 | 21.21560 | 110.17322 | 35956 ft | 438 kts | 294° |
| 2026-04-24 10:08 | 21.24464 | 110.11605 | 35952 ft | 435 kts | 294° |
| 2026-04-24 10:09 | 21.26847 | 110.06877 | 35949 ft | 432 kts | 293° |
| 2026-04-24 10:09 | 21.30155 | 110.00289 | 35949 ft | 431 kts | 293° |
| 2026-04-24 10:10 | 21.32996 | 109.94620 | 35950 ft | 432 kts | 293° |
| 2026-04-24 10:10 | 21.35843 | 109.88940 | 35947 ft | 432 kts | 293° |
| 2026-04-24 10:11 | 21.38202 | 109.84228 | 35950 ft | 432 kts | 293° |
| 2026-04-24 10:11 | 21.41046 | 109.78543 | 35953 ft | 431 kts | 293° |
| 2026-04-24 10:12 | 21.43878 | 109.72880 | 35949 ft | 429 kts | 293° |
| 2026-04-24 10:12 | 21.46692 | 109.67243 | 35950 ft | 428 kts | 293° |
| 2026-04-24 10:13 | 21.49509 | 109.61593 | 35947 ft | 428 kts | 293° |
| 2026-04-24 10:13 | 21.52301 | 109.55987 | 35947 ft | 428 kts | 293° |
| 2026-04-24 10:14 | 21.55114 | 109.50334 | 35944 ft | 428 kts | 293° |
| 2026-04-24 10:14 | 21.57962 | 109.44697 | 35947 ft | 430 kts | 296° |
| 2026-04-24 10:15 | 21.61513 | 109.39535 | 35969 ft | 433 kts | 303° |
| 2026-04-24 10:15 | 21.65362 | 109.34549 | 35946 ft | 433 kts | 304° |
| 2026-04-24 10:16 | 21.69265 | 109.29594 | 35944 ft | 433 kts | 304° |
| 2026-04-24 10:16 | 21.73126 | 109.24677 | 35941 ft | 433 kts | 304° |
| 2026-04-24 10:17 | 21.77003 | 109.19715 | 35943 ft | 433 kts | 303° |
| 2026-04-24 10:17 | 21.80875 | 109.14746 | 35944 ft | 433 kts | 303° |
| 2026-04-24 10:18 | 21.84738 | 109.09782 | 35944 ft | 433 kts | 303° |
| 2026-04-24 10:18 | 21.88597 | 109.04845 | 35941 ft | 433 kts | 304° |
| 2026-04-24 10:19 | 21.92487 | 108.99878 | 35944 ft | 433 kts | 304° |
| 2026-04-24 10:19 | 21.96367 | 108.94920 | 35939 ft | 433 kts | 304° |
| 2026-04-24 10:20 | 22.00241 | 108.89963 | 35938 ft | 431 kts | 303° |
| 2026-04-24 10:20 | 22.04069 | 108.85060 | 35935 ft | 430 kts | 303° |
| 2026-04-24 10:21 | 22.07920 | 108.80120 | 35941 ft | 430 kts | 303° |
| 2026-04-24 10:21 | 22.11768 | 108.75180 | 35939 ft | 429 kts | 304° |
| 2026-04-24 10:22 | 22.15613 | 108.70260 | 35942 ft | 428 kts | 304° |
| 2026-04-24 10:22 | 22.19455 | 108.65348 | 35943 ft | 428 kts | 304° |
| 2026-04-24 10:23 | 22.23307 | 108.60420 | 35943 ft | 428 kts | 304° |
| 2026-04-24 10:23 | 22.27120 | 108.55533 | 35945 ft | 428 kts | 304° |
| 2026-04-24 10:24 | 22.30966 | 108.50601 | 35946 ft | 428 kts | 304° |
| 2026-04-24 10:24 | 22.34808 | 108.45670 | 35976 ft | 428 kts | 303° |
| 2026-04-24 10:25 | 22.38618 | 108.40780 | 35941 ft | 426 kts | 303° |
| 2026-04-24 10:25 | 22.42432 | 108.35874 | 35952 ft | 424 kts | 303° |
| 2026-04-24 10:26 | 22.46233 | 108.30976 | 35936 ft | 424 kts | 303° |
| 2026-04-24 10:26 | 22.50032 | 108.26085 | 35953 ft | 424 kts | 303° |
| 2026-04-24 10:27 | 22.53807 | 108.21213 | 35970 ft | 424 kts | 303° |
| 2026-04-24 10:27 | 22.57595 | 108.16320 | 35969 ft | 424 kts | 303° |
| 2026-04-24 10:28 | 22.61548 | 108.11528 | 35971 ft | 427 kts | 306° |
| 2026-04-24 10:28 | 22.65633 | 108.06900 | 35955 ft | 428 kts | 307° |
| 2026-04-24 10:29 | 22.69766 | 108.02242 | 35966 ft | 428 kts | 307° |
| 2026-04-24 10:29 | 22.73868 | 107.97577 | 35960 ft | 426 kts | 306° |
| 2026-04-24 10:30 | 22.77931 | 107.92928 | 35955 ft | 424 kts | 306° |
| 2026-04-24 10:30 | 22.81961 | 107.88304 | 35958 ft | 424 kts | 306° |
| 2026-04-24 10:31 | 22.86017 | 107.83646 | 35953 ft | 424 kts | 306° |
| 2026-04-24 10:31 | 22.90064 | 107.78998 | 35954 ft | 424 kts | 306° |
| 2026-04-24 10:32 | 22.94109 | 107.74348 | 35963 ft | 424 kts | 306° |
| 2026-04-24 10:32 | 22.98163 | 107.69684 | 35958 ft | 423 kts | 306° |
| 2026-04-24 10:33 | 23.02200 | 107.65036 | 35958 ft | 423 kts | 306° |
| 2026-04-24 10:33 | 23.06216 | 107.60407 | 36000 ft | 424 kts | 306° |
| 2026-04-24 10:34 | 23.10248 | 107.55755 | 35962 ft | 422 kts | 306° |
| 2026-04-24 10:34 | 23.14268 | 107.51122 | 35966 ft | 421 kts | 306° |
| 2026-04-24 10:35 | 23.18283 | 107.46488 | 35972 ft | 421 kts | 306° |
| 2026-04-24 10:35 | 23.22293 | 107.41853 | 35968 ft | 421 kts | 306° |
| 2026-04-24 10:36 | 23.26302 | 107.37214 | 35971 ft | 421 kts | 306° |
| 2026-04-24 10:36 | 23.30283 | 107.32604 | 35980 ft | 420 kts | 306° |
| 2026-04-24 10:37 | 23.34297 | 107.27953 | 35976 ft | 420 kts | 306° |
| 2026-04-24 10:37 | 23.38294 | 107.23311 | 35977 ft | 420 kts | 306° |
| 2026-04-24 10:38 | 23.42294 | 107.18664 | 36007 ft | 420 kts | 306° |
| 2026-04-24 10:38 | 23.46286 | 107.14032 | 35979 ft | 418 kts | 306° |
| 2026-04-24 10:39 | 23.50234 | 107.09440 | 35976 ft | 417 kts | 305° |
| 2026-04-24 10:39 | 23.54197 | 107.04821 | 35984 ft | 417 kts | 305° |
| 2026-04-24 10:40 | 23.58155 | 107.00206 | 35982 ft | 416 kts | 306° |
| 2026-04-24 10:40 | 23.62102 | 106.95602 | 35983 ft | 415 kts | 306° |
| 2026-04-24 10:41 | 23.66043 | 106.90999 | 35984 ft | 415 kts | 306° |
| 2026-04-24 10:41 | 23.69993 | 106.86380 | 35985 ft | 416 kts | 306° |
| 2026-04-24 10:42 | 23.73924 | 106.81780 | 35985 ft | 416 kts | 306° |
| 2026-04-24 10:42 | 23.77870 | 106.77158 | 36012 ft | 416 kts | 306° |
| 2026-04-24 10:43 | 23.81823 | 106.72522 | 35987 ft | 416 kts | 306° |
| 2026-04-24 10:43 | 23.85767 | 106.67895 | 35990 ft | 416 kts | 306° |
| 2026-04-24 10:44 | 23.89612 | 106.63228 | 35990 ft | 412 kts | 301° |
| 2026-04-24 10:44 | 23.92477 | 106.57905 | 35994 ft | 402 kts | 288° |
| 2026-04-24 10:45 | 23.94040 | 106.52118 | 35992 ft | 399 kts | 281° |
| 2026-04-24 10:45 | 23.95249 | 106.46196 | 35995 ft | 399 kts | 280° |
| 2026-04-24 10:46 | 23.96405 | 106.40262 | 35996 ft | 399 kts | 280° |
| 2026-04-24 10:46 | 23.97582 | 106.34321 | 36002 ft | 399 kts | 281° |
| 2026-04-24 10:47 | 23.98776 | 106.28388 | 35998 ft | 400 kts | 281° |
| 2026-04-24 10:47 | 23.99972 | 106.22441 | 35992 ft | 400 kts | 281° |
| 2026-04-24 10:48 | 24.01160 | 106.16531 | 35999 ft | 400 kts | 281° |
| 2026-04-24 10:48 | 24.02353 | 106.10574 | 36003 ft | 401 kts | 281° |
| 2026-04-24 10:49 | 24.03544 | 106.04614 | 36013 ft | 401 kts | 281° |
| 2026-04-24 10:49 | 24.04736 | 105.98649 | 36003 ft | 400 kts | 281° |
| 2026-04-24 10:50 | 24.05919 | 105.92715 | 36011 ft | 401 kts | 281° |
| 2026-04-24 10:50 | 24.07108 | 105.86728 | 36010 ft | 401 kts | 281° |
| 2026-04-24 10:51 | 24.08293 | 105.80751 | 36009 ft | 401 kts | 281° |
| 2026-04-24 10:51 | 24.09469 | 105.74800 | 36017 ft | 402 kts | 281° |
| 2026-04-24 10:52 | 24.10687 | 105.68831 | 36010 ft | 401 kts | 282° |
| 2026-04-24 10:52 | 24.12102 | 105.62927 | 36015 ft | 401 kts | 284° |
| 2026-04-24 10:53 | 24.13570 | 105.57043 | 36012 ft | 401 kts | 284° |
| 2026-04-24 10:53 | 24.15030 | 105.51133 | 36010 ft | 403 kts | 283° |
| 2026-04-24 10:54 | 24.16479 | 105.45189 | 36015 ft | 403 kts | 283° |
| 2026-04-24 10:54 | 24.17904 | 105.39307 | 36018 ft | 402 kts | 283° |
| 2026-04-24 10:55 | 24.19340 | 105.33386 | 36016 ft | 402 kts | 283° |
| 2026-04-24 10:55 | 24.20771 | 105.27473 | 36009 ft | 401 kts | 284° |
| 2026-04-24 10:56 | 24.22199 | 105.21542 | 36014 ft | 402 kts | 283° |
| 2026-04-24 10:56 | 24.23541 | 105.15621 | 36005 ft | 402 kts | 283° |
| 2026-04-24 10:57 | 24.24854 | 105.09655 | 36002 ft | 402 kts | 283° |
| 2026-04-24 10:57 | 24.26167 | 105.03672 | 36014 ft | 403 kts | 283° |
| 2026-04-24 10:58 | 24.27485 | 104.97708 | 36004 ft | 406 kts | 283° |
| 2026-04-24 10:58 | 24.28818 | 104.91675 | 36006 ft | 408 kts | 283° |
| 2026-04-24 10:59 | 24.29928 | 104.86628 | 36018 ft | 410 kts | 283° |
| 2026-04-24 10:59 | 24.31266 | 104.80533 | 36019 ft | 411 kts | 283° |
| 2026-04-24 11:00 | 24.32601 | 104.74448 | 36021 ft | 410 kts | 283° |
| 2026-04-24 11:00 | 24.33932 | 104.68366 | 36019 ft | 410 kts | 283° |
| 2026-04-24 11:01 | 24.35254 | 104.62321 | 36031 ft | 410 kts | 283° |
| 2026-04-24 11:01 | 24.36582 | 104.56223 | 36032 ft | 411 kts | 283° |
| 2026-04-24 11:02 | 24.37910 | 104.50116 | 36049 ft | 411 kts | 282° |
| 2026-04-24 11:02 | 24.39225 | 104.44060 | 36046 ft | 410 kts | 283° |
| 2026-04-24 11:03 | 24.40548 | 104.37959 | 36047 ft | 411 kts | 283° |
| 2026-04-24 11:03 | 24.41872 | 104.31844 | 36068 ft | 411 kts | 283° |
| 2026-04-24 11:04 | 24.43191 | 104.25730 | 36064 ft | 412 kts | 283° |
| 2026-04-24 11:04 | 24.44500 | 104.19646 | 36077 ft | 412 kts | 283° |
| 2026-04-24 11:05 | 24.45818 | 104.13518 | 36086 ft | 411 kts | 283° |
| 2026-04-24 11:05 | 24.47128 | 104.07407 | 36085 ft | 412 kts | 283° |
| 2026-04-24 11:06 | 24.48438 | 104.01277 | 36090 ft | 412 kts | 283° |
| 2026-04-24 11:06 | 24.49745 | 103.95154 | 36097 ft | 411 kts | 283° |
| 2026-04-24 11:07 | 24.51704 | 103.85967 | 36103 ft | 412 kts | 283° |
| 2026-04-24 11:07 | 24.52998 | 103.79878 | 36102 ft | 412 kts | 283° |
| 2026-04-24 11:08 | 24.54060 | 103.73692 | 36103 ft | 413 kts | 276° |
| 2026-04-24 11:08 | 24.54353 | 103.67382 | 36102 ft | 413 kts | 273° |
| 2026-04-24 11:09 | 24.54489 | 103.61075 | 36102 ft | 413 kts | 272° |
| 2026-04-24 11:09 | 24.54596 | 103.54789 | 36102 ft | 414 kts | 272° |
| 2026-04-24 11:10 | 24.54712 | 103.48469 | 36097 ft | 414 kts | 273° |
| 2026-04-24 11:10 | 24.54838 | 103.42109 | 36102 ft | 418 kts | 273° |
| 2026-04-24 11:11 | 24.54963 | 103.35703 | 36107 ft | 420 kts | 273° |
| 2026-04-24 11:11 | 24.55085 | 103.29313 | 36096 ft | 420 kts | 273° |
| 2026-04-24 11:12 | 24.55207 | 103.22894 | 36098 ft | 420 kts | 274° |
| 2026-04-24 11:12 | 24.56088 | 103.16590 | 36102 ft | 418 kts | 287° |
| 2026-04-24 11:13 | 24.57945 | 103.10534 | 36087 ft | 418 kts | 290° |
| 2026-04-24 11:13 | 24.59981 | 103.04583 | 36089 ft | 419 kts | 290° |
| 2026-04-24 11:14 | 24.62044 | 102.98599 | 36087 ft | 418 kts | 290° |
| 2026-04-24 11:14 | 24.64089 | 102.92603 | 36084 ft | 418 kts | 290° |
| 2026-04-24 11:15 | 24.66113 | 102.86617 | 36078 ft | 418 kts | 290° |
| 2026-04-24 11:15 | 24.67749 | 102.80535 | 36076 ft | 418 kts | 280° |
| 2026-04-24 11:16 | 24.67992 | 102.74127 | 36068 ft | 421 kts | 270° |
| 2026-04-24 11:16 | 24.67650 | 102.67670 | 36068 ft | 424 kts | 269° |
| 2026-04-24 11:17 | 24.67204 | 102.61209 | 36056 ft | 424 kts | 269° |
| 2026-04-24 11:17 | 24.66791 | 102.54735 | 36056 ft | 423 kts | 270° |
| 2026-04-24 11:18 | 24.66500 | 102.48273 | 36052 ft | 423 kts | 270° |
| 2026-04-24 11:18 | 24.66242 | 102.41853 | 36044 ft | 423 kts | 270° |
| 2026-04-24 11:19 | 24.65975 | 102.35416 | 36037 ft | 418 kts | 270° |
| 2026-04-24 11:19 | 24.65699 | 102.29067 | 36021 ft | 414 kts | 270° |
| 2026-04-24 11:20 | 24.65422 | 102.22754 | 36017 ft | 413 kts | 270° |
| 2026-04-24 11:20 | 24.65141 | 102.16435 | 35988 ft | 414 kts | 270° |
| 2026-04-24 11:21 | 24.64856 | 102.10102 | 35993 ft | 415 kts | 270° |
| 2026-04-24 11:21 | 24.64569 | 102.03765 | 35969 ft | 415 kts | 270° |
| 2026-04-24 11:22 | 24.64277 | 101.97400 | 35968 ft | 418 kts | 270° |
| 2026-04-24 11:22 | 24.63985 | 101.91052 | 35970 ft | 418 kts | 270° |
| 2026-04-24 11:23 | 24.63686 | 101.84658 | 35951 ft | 419 kts | 270° |
| 2026-04-24 11:23 | 24.63385 | 101.78265 | 35946 ft | 418 kts | 270° |
| 2026-04-24 11:24 | 24.63081 | 101.71875 | 35937 ft | 419 kts | 270° |
| 2026-04-24 11:24 | 24.62775 | 101.65492 | 35936 ft | 418 kts | 270° |
| 2026-04-24 11:25 | 24.62316 | 101.59120 | 35922 ft | 420 kts | 264° |
| 2026-04-24 11:25 | 24.60565 | 101.52952 | 35922 ft | 429 kts | 250° |
| 2026-04-24 11:26 | 24.57867 | 101.47119 | 35909 ft | 431 kts | 248° |
| 2026-04-24 11:26 | 24.54980 | 101.41349 | 35919 ft | 429 kts | 247° |
| 2026-04-24 11:27 | 24.52093 | 101.35621 | 35919 ft | 428 kts | 247° |
| 2026-04-24 11:27 | 24.49241 | 101.29896 | 35904 ft | 426 kts | 247° |
| 2026-04-24 11:28 | 24.46411 | 101.24177 | 35912 ft | 425 kts | 247° |
| 2026-04-24 11:28 | 24.43604 | 101.18501 | 35912 ft | 426 kts | 247° |
| 2026-04-24 11:29 | 24.40768 | 101.12786 | 35914 ft | 426 kts | 247° |
| 2026-04-24 11:29 | 24.37935 | 101.07083 | 35897 ft | 425 kts | 247° |
| 2026-04-24 11:30 | 24.35096 | 101.01378 | 35903 ft | 426 kts | 247° |
| 2026-04-24 11:30 | 24.32257 | 100.95678 | 35899 ft | 425 kts | 247° |
| 2026-04-24 11:31 | 24.29412 | 100.89984 | 35886 ft | 424 kts | 248° |
| 2026-04-24 11:31 | 24.26600 | 100.84346 | 35891 ft | 420 kts | 247° |
| 2026-04-24 11:32 | 24.23798 | 100.78733 | 35882 ft | 421 kts | 247° |
| 2026-04-24 11:32 | 24.20992 | 100.73126 | 35882 ft | 423 kts | 247° |
| 2026-04-24 11:33 | 24.18149 | 100.67447 | 35865 ft | 421 kts | 247° |
| 2026-04-24 11:33 | 24.15343 | 100.61855 | 35870 ft | 420 kts | 247° |
| 2026-04-24 11:34 | 24.12519 | 100.56233 | 35864 ft | 422 kts | 247° |
| 2026-04-24 11:34 | 24.09682 | 100.50651 | 35866 ft | 422 kts | 247° |
| 2026-04-24 11:35 | 24.06807 | 100.45048 | 35866 ft | 421 kts | 247° |
| 2026-04-24 11:35 | 24.03926 | 100.39439 | 35864 ft | 422 kts | 247° |
| 2026-04-24 11:36 | 24.01050 | 100.33848 | 35849 ft | 421 kts | 248° |
| 2026-04-24 11:36 | 23.98201 | 100.28304 | 35859 ft | 420 kts | 247° |
| 2026-04-24 11:37 | 23.95334 | 100.22724 | 35861 ft | 421 kts | 247° |
| 2026-04-24 11:37 | 23.92476 | 100.17171 | 35860 ft | 418 kts | 247° |
| 2026-04-24 11:38 | 23.89620 | 100.11631 | 35854 ft | 418 kts | 247° |
| 2026-04-24 11:38 | 23.86762 | 100.06094 | 35855 ft | 418 kts | 247° |
| 2026-04-24 11:39 | 23.83908 | 100.00568 | 35859 ft | 420 kts | 247° |
| 2026-04-24 11:39 | 23.81033 | 99.95008 | 35854 ft | 419 kts | 247° |
| 2026-04-24 11:40 | 23.78167 | 99.89476 | 35848 ft | 418 kts | 247° |
| 2026-04-24 11:40 | 23.75313 | 99.83977 | 35823 ft | 417 kts | 247° |
| 2026-04-24 11:41 | 23.72444 | 99.78460 | 35845 ft | 417 kts | 247° |
| 2026-04-24 11:41 | 23.69592 | 99.72965 | 35862 ft | 415 kts | 246° |
| 2026-04-24 11:42 | 23.66748 | 99.67495 | 35841 ft | 414 kts | 247° |
| 2026-04-24 11:42 | 23.63904 | 99.62033 | 35833 ft | 414 kts | 248° |
| 2026-04-24 11:43 | 23.61057 | 99.56574 | 35837 ft | 414 kts | 247° |
| 2026-04-24 11:43 | 23.58223 | 99.51142 | 35851 ft | 414 kts | 247° |
| 2026-04-24 11:44 | 23.55367 | 99.45675 | 35833 ft | 415 kts | 247° |
| 2026-04-24 11:44 | 23.52735 | 99.40130 | 35838 ft | 408 kts | 254° |
| 2026-04-24 11:45 | 23.50787 | 99.34343 | 35830 ft | 406 kts | 256° |
| 2026-04-24 11:45 | 23.48974 | 99.28518 | 35823 ft | 405 kts | 256° |
| 2026-04-24 11:46 | 23.47488 | 99.23694 | 35814 ft | 404 kts | 257° |
| 2026-04-24 11:46 | 23.45402 | 99.16947 | 35823 ft | 404 kts | 256° |
| 2026-04-24 11:47 | 23.43883 | 99.12079 | 35824 ft | 405 kts | 256° |
| 2026-04-24 11:47 | 23.42081 | 99.06299 | 35809 ft | 406 kts | 256° |
| 2026-04-24 11:48 | 23.40262 | 99.00475 | 35811 ft | 406 kts | 256° |
| 2026-04-24 11:48 | 23.38435 | 98.94649 | 35803 ft | 404 kts | 256° |
| 2026-04-24 11:49 | 23.36569 | 98.88862 | 35794 ft | 405 kts | 255° |
| 2026-04-24 11:49 | 23.34650 | 98.83117 | 35792 ft | 406 kts | 255° |
| 2026-04-24 11:50 | 23.32702 | 98.77326 | 35788 ft | 407 kts | 255° |
| 2026-04-24 11:50 | 23.30756 | 98.71540 | 35787 ft | 406 kts | 255° |
| 2026-04-24 11:51 | 23.28822 | 98.65794 | 35795 ft | 407 kts | 255° |
| 2026-04-24 11:51 | 23.26872 | 98.59997 | 35799 ft | 407 kts | 255° |
| 2026-04-24 11:52 | 23.24924 | 98.54224 | 35791 ft | 407 kts | 255° |
| 2026-04-24 11:52 | 23.22971 | 98.48442 | 35797 ft | 406 kts | 255° |
| 2026-04-24 11:53 | 23.21034 | 98.42709 | 35799 ft | 406 kts | 255° |
| 2026-04-24 11:53 | 23.19088 | 98.36952 | 35799 ft | 406 kts | 255° |
| 2026-04-24 11:54 | 23.17131 | 98.31172 | 35800 ft | 408 kts | 255° |
| 2026-04-24 11:54 | 23.15166 | 98.25388 | 35809 ft | 408 kts | 255° |
| 2026-04-24 11:55 | 23.13206 | 98.19624 | 35798 ft | 407 kts | 255° |
| 2026-04-24 11:55 | 23.11244 | 98.13858 | 35796 ft | 406 kts | 255° |
| 2026-04-24 11:56 | 23.09278 | 98.08087 | 35800 ft | 407 kts | 255° |
| 2026-04-24 11:56 | 23.07311 | 98.02314 | 35790 ft | 408 kts | 255° |
| 2026-04-24 11:57 | 23.05319 | 97.96482 | 35784 ft | 417 kts | 254° |
| 2026-04-24 11:57 | 23.03277 | 97.90504 | 35782 ft | 428 kts | 254° |
| 2026-04-24 11:58 | 23.01195 | 97.84431 | 35766 ft | 429 kts | 254° |
| 2026-04-24 11:58 | 22.99271 | 97.78364 | 35765 ft | 426 kts | 260° |
| 2026-04-24 11:59 | 22.98644 | 97.72037 | 35767 ft | 419 kts | 274° |
| 2026-04-24 11:59 | 22.99196 | 97.65863 | 35765 ft | 404 kts | 277° |
| 2026-04-24 12:00 | 22.99952 | 97.59872 | 35774 ft | 399 kts | 278° |
| 2026-04-24 12:00 | 23.00725 | 97.53907 | 35786 ft | 399 kts | 278° |
| 2026-04-24 12:01 | 23.01474 | 97.47923 | 35784 ft | 399 kts | 278° |
| 2026-04-24 12:01 | 23.02202 | 97.41935 | 35785 ft | 400 kts | 278° |
| 2026-04-24 12:02 | 23.02918 | 97.35982 | 35781 ft | 400 kts | 277° |
| 2026-04-24 12:02 | 23.03639 | 97.29991 | 35781 ft | 399 kts | 278° |
| 2026-04-24 12:03 | 23.04361 | 97.24006 | 35802 ft | 400 kts | 278° |
| 2026-04-24 12:03 | 23.05082 | 97.18009 | 35796 ft | 400 kts | 277° |
| 2026-04-24 12:04 | 23.05795 | 97.12049 | 35813 ft | 400 kts | 278° |
| 2026-04-24 12:04 | 23.06509 | 97.06050 | 35808 ft | 400 kts | 278° |
| 2026-04-24 12:05 | 23.07221 | 97.00051 | 35807 ft | 400 kts | 277° |
| 2026-04-24 12:05 | 23.07929 | 96.94061 | 35807 ft | 400 kts | 278° |
| 2026-04-24 12:06 | 23.08633 | 96.88093 | 35802 ft | 400 kts | 277° |
| 2026-04-24 12:06 | 23.09348 | 96.82075 | 35769 ft | 400 kts | 278° |
| 2026-04-24 12:07 | 23.10050 | 96.76067 | 35769 ft | 401 kts | 277° |
| 2026-04-24 12:07 | 23.10745 | 96.70081 | 35769 ft | 401 kts | 277° |
| 2026-04-24 12:08 | 23.11444 | 96.64063 | 35749 ft | 401 kts | 277° |
| 2026-04-24 12:08 | 23.12137 | 96.58090 | 35750 ft | 401 kts | 277° |
| 2026-04-24 12:09 | 23.12833 | 96.52069 | 35735 ft | 402 kts | 277° |
| 2026-04-24 12:09 | 23.13528 | 96.46041 | 35730 ft | 402 kts | 277° |
| 2026-04-24 12:10 | 23.14222 | 96.39992 | 35737 ft | 403 kts | 277° |
| 2026-04-24 12:11 | 23.15258 | 96.30932 | 35727 ft | 403 kts | 277° |
| 2026-04-24 12:11 | 23.15946 | 96.24890 | 35724 ft | 403 kts | 277° |
| 2026-04-24 12:12 | 23.16632 | 96.18850 | 35714 ft | 403 kts | 277° |
| 2026-04-24 12:12 | 23.17315 | 96.12802 | 35716 ft | 403 kts | 277° |
| 2026-04-24 12:13 | 23.17992 | 96.06795 | 35702 ft | 403 kts | 277° |
| 2026-04-24 12:13 | 23.18673 | 96.00731 | 35702 ft | 404 kts | 277° |
| 2026-04-24 12:14 | 23.19351 | 95.94667 | 35702 ft | 404 kts | 277° |
| 2026-04-24 12:14 | 23.20026 | 95.88611 | 35703 ft | 404 kts | 277° |
| 2026-04-24 12:15 | 23.20700 | 95.82546 | 35703 ft | 404 kts | 277° |
| 2026-04-24 12:15 | 23.21366 | 95.76520 | 35702 ft | 404 kts | 277° |
| 2026-04-24 12:16 | 23.22035 | 95.70457 | 35700 ft | 404 kts | 277° |
| 2026-04-24 12:16 | 23.22703 | 95.64383 | 35699 ft | 404 kts | 277° |
| 2026-04-24 12:17 | 23.23368 | 95.58315 | 35702 ft | 404 kts | 277° |
| 2026-04-24 12:17 | 23.24031 | 95.52235 | 35703 ft | 404 kts | 277° |
| 2026-04-24 12:18 | 23.24687 | 95.46201 | 35709 ft | 404 kts | 277° |
| 2026-04-24 12:18 | 23.25346 | 95.40125 | 35708 ft | 404 kts | 277° |
| 2026-04-24 12:19 | 23.26001 | 95.34051 | 35706 ft | 404 kts | 277° |
| 2026-04-24 12:19 | 23.26656 | 95.27964 | 35716 ft | 405 kts | 276° |
| 2026-04-24 12:20 | 23.27308 | 95.21882 | 35717 ft | 405 kts | 276° |
| 2026-04-24 12:20 | 23.27953 | 95.15834 | 35729 ft | 405 kts | 276° |
| 2026-04-24 12:21 | 23.28600 | 95.09752 | 35735 ft | 405 kts | 276° |
| 2026-04-24 12:21 | 23.29245 | 95.03663 | 35735 ft | 405 kts | 276° |
| 2026-04-24 12:22 | 23.29889 | 94.97563 | 35741 ft | 405 kts | 276° |
| 2026-04-24 12:22 | 23.30529 | 94.91481 | 35743 ft | 405 kts | 276° |
| 2026-04-24 12:23 | 23.31168 | 94.85386 | 35750 ft | 405 kts | 276° |
| 2026-04-24 12:23 | 23.31799 | 94.79335 | 35748 ft | 405 kts | 276° |
| 2026-04-24 12:24 | 23.32433 | 94.73236 | 35748 ft | 405 kts | 276° |
| 2026-04-24 12:24 | 23.33065 | 94.67138 | 35746 ft | 405 kts | 276° |
| 2026-04-24 12:25 | 23.33695 | 94.61028 | 35745 ft | 406 kts | 276° |
| 2026-04-24 12:25 | 23.34320 | 94.54952 | 35739 ft | 405 kts | 276° |
| 2026-04-24 12:26 | 23.34945 | 94.48853 | 35742 ft | 405 kts | 276° |
| 2026-04-24 12:26 | 23.35568 | 94.42749 | 35740 ft | 405 kts | 276° |
| 2026-04-24 12:27 | 23.36184 | 94.36681 | 35739 ft | 405 kts | 276° |
| 2026-04-24 12:27 | 23.36802 | 94.30578 | 35738 ft | 405 kts | 275° |
| 2026-04-24 12:28 | 23.37417 | 94.24466 | 35771 ft | 406 kts | 276° |
| 2026-04-24 12:28 | 23.38029 | 94.18364 | 35767 ft | 404 kts | 276° |
| 2026-04-24 12:29 | 23.38638 | 94.12291 | 35765 ft | 404 kts | 276° |
| 2026-04-24 12:29 | 23.39244 | 94.06213 | 35806 ft | 404 kts | 276° |
| 2026-04-24 12:30 | 23.39847 | 94.00130 | 35806 ft | 404 kts | 276° |
| 2026-04-24 12:30 | 23.40446 | 93.94060 | 35842 ft | 403 kts | 276° |
| 2026-04-24 12:31 | 23.41037 | 93.88030 | 35829 ft | 402 kts | 276° |
| 2026-04-24 12:31 | 23.41645 | 93.81963 | 35845 ft | 404 kts | 275° |
| 2026-04-24 12:32 | 23.42233 | 93.75874 | 35876 ft | 405 kts | 275° |
| 2026-04-24 12:32 | 23.42820 | 93.69770 | 35870 ft | 405 kts | 275° |
| 2026-04-24 12:33 | 23.43307 | 93.64707 | 35865 ft | 403 kts | 275° |
| 2026-04-24 12:33 | 23.43906 | 93.58622 | 35860 ft | 404 kts | 275° |
| 2026-04-24 12:34 | 23.44497 | 93.52531 | 35884 ft | 404 kts | 275° |
| 2026-04-24 12:34 | 23.45142 | 93.46435 | 35886 ft | 405 kts | 279° |
| 2026-04-24 12:35 | 23.46193 | 93.40410 | 35888 ft | 405 kts | 280° |
| 2026-04-24 12:35 | 23.47328 | 93.34396 | 35889 ft | 405 kts | 280° |
| 2026-04-24 12:36 | 23.48475 | 93.28419 | 35887 ft | 405 kts | 280° |
| 2026-04-24 12:36 | 23.49609 | 93.22401 | 35891 ft | 406 kts | 280° |
| 2026-04-24 12:37 | 23.50743 | 93.16376 | 35870 ft | 405 kts | 280° |
| 2026-04-24 12:37 | 23.51875 | 93.10364 | 35873 ft | 405 kts | 280° |
| 2026-04-24 12:38 | 23.53004 | 93.04338 | 35870 ft | 406 kts | 279° |
| 2026-04-24 12:38 | 23.54125 | 92.98341 | 35867 ft | 406 kts | 280° |
| 2026-04-24 12:39 | 23.56374 | 92.86290 | 35849 ft | 405 kts | 280° |
| 2026-04-24 12:40 | 23.57496 | 92.80257 | 35853 ft | 406 kts | 279° |
| 2026-04-24 12:40 | 23.58608 | 92.74268 | 35838 ft | 405 kts | 280° |
| 2026-04-24 12:41 | 23.59726 | 92.68238 | 35836 ft | 405 kts | 279° |
| 2026-04-24 12:41 | 23.60842 | 92.62219 | 35835 ft | 405 kts | 280° |
| 2026-04-24 12:42 | 23.62064 | 92.56204 | 35834 ft | 406 kts | 281° |
| 2026-04-24 12:42 | 23.63318 | 92.50239 | 35831 ft | 406 kts | 281° |
| 2026-04-24 12:43 | 23.64582 | 92.44229 | 35829 ft | 406 kts | 281° |
| 2026-04-24 12:43 | 23.65831 | 92.38231 | 35818 ft | 405 kts | 281° |
| 2026-04-24 12:44 | 23.67083 | 92.32215 | 35821 ft | 406 kts | 281° |
| 2026-04-24 12:44 | 23.68312 | 92.26242 | 35804 ft | 406 kts | 280° |
| 2026-04-24 12:45 | 23.69548 | 92.20223 | 35807 ft | 406 kts | 280° |
| 2026-04-24 12:45 | 23.70783 | 92.14208 | 35789 ft | 406 kts | 280° |
| 2026-04-24 12:45 | 23.71401 | 92.11193 | 35560 ft | 407 kts | 280° |
| 2026-04-24 12:46 | 23.72019 | 92.08175 | 35323 ft | 407 kts | 281° |
| 2026-04-24 12:46 | 23.72630 | 92.05189 | 35087 ft | 408 kts | 281° |
| 2026-04-24 12:46 | 23.73251 | 92.02160 | 34856 ft | 409 kts | 281° |
| 2026-04-24 12:46 | 23.73873 | 91.99118 | 34648 ft | 410 kts | 281° |
| 2026-04-24 12:47 | 23.74499 | 91.96055 | 34405 ft | 411 kts | 281° |
| 2026-04-24 12:47 | 23.75120 | 91.93009 | 34173 ft | 412 kts | 281° |
| 2026-04-24 12:47 | 23.75736 | 91.89991 | 33961 ft | 412 kts | 281° |
| 2026-04-24 12:47 | 23.76360 | 91.86927 | 33722 ft | 414 kts | 281° |
| 2026-04-24 12:48 | 23.76986 | 91.83847 | 33460 ft | 416 kts | 281° |
| 2026-04-24 12:48 | 23.77615 | 91.80750 | 33198 ft | 418 kts | 281° |
| 2026-04-24 12:48 | 23.78247 | 91.77633 | 32942 ft | 421 kts | 281° |
| 2026-04-24 12:48 | 23.78882 | 91.74498 | 32682 ft | 424 kts | 281° |
| 2026-04-24 12:49 | 23.79521 | 91.71341 | 32444 ft | 427 kts | 281° |
| 2026-04-24 12:49 | 23.80155 | 91.68204 | 32200 ft | 429 kts | 281° |
| 2026-04-24 12:49 | 23.80800 | 91.65011 | 31840 ft | 431 kts | 281° |
| 2026-04-24 12:49 | 23.81449 | 91.61796 | 31373 ft | 435 kts | 281° |
| 2026-04-24 12:50 | 23.82103 | 91.58552 | 30929 ft | 439 kts | 281° |
| 2026-04-24 12:50 | 23.82763 | 91.55273 | 30488 ft | 445 kts | 281° |
| 2026-04-24 12:50 | 23.83431 | 91.51949 | 30047 ft | 450 kts | 281° |
| 2026-04-24 12:50 | 23.84104 | 91.48595 | 29583 ft | 454 kts | 281° |
| 2026-04-24 12:51 | 23.84784 | 91.45210 | 29063 ft | 456 kts | 281° |
| 2026-04-24 12:51 | 23.85463 | 91.41823 | 28564 ft | 455 kts | 281° |
| 2026-04-24 12:51 | 23.86132 | 91.38486 | 28078 ft | 454 kts | 281° |
| 2026-04-24 12:51 | 23.86805 | 91.35123 | 27597 ft | 452 kts | 281° |
| 2026-04-24 12:52 | 23.87475 | 91.31768 | 27125 ft | 450 kts | 281° |
| 2026-04-24 12:52 | 23.88143 | 91.28427 | 26655 ft | 449 kts | 281° |
| 2026-04-24 12:52 | 23.89090 | 91.25183 | 26140 ft | 450 kts | 292° |
| 2026-04-24 12:52 | 23.90686 | 91.22249 | 25455 ft | 451 kts | 306° |
| 2026-04-24 12:53 | 23.92725 | 91.19634 | 24751 ft | 452 kts | 310° |
| 2026-04-24 12:53 | 23.94860 | 91.17116 | 24056 ft | 451 kts | 311° |
| 2026-04-24 12:53 | 23.96989 | 91.14644 | 23383 ft | 451 kts | 312° |
| 2026-04-24 12:53 | 23.99138 | 91.12153 | 22671 ft | 449 kts | 312° |
| 2026-04-24 12:54 | 24.01273 | 91.09676 | 21930 ft | 446 kts | 312° |
| 2026-04-24 12:54 | 24.03394 | 91.07213 | 21234 ft | 443 kts | 312° |
| 2026-04-24 12:54 | 24.05498 | 91.04767 | 20553 ft | 440 kts | 312° |
| 2026-04-24 12:54 | 24.07591 | 91.02331 | 19888 ft | 437 kts | 312° |
| 2026-04-24 12:55 | 24.09663 | 90.99918 | 19297 ft | 433 kts | 312° |
| 2026-04-24 12:55 | 24.11713 | 90.97530 | 18725 ft | 428 kts | 312° |
| 2026-04-24 12:55 | 24.13717 | 90.95194 | 18170 ft | 423 kts | 312° |
| 2026-04-24 12:55 | 24.15747 | 90.92826 | 17545 ft | 419 kts | 312° |
| 2026-04-24 12:56 | 24.17539 | 90.90390 | 16943 ft | 413 kts | 301° |
| 2026-04-24 12:56 | 24.18628 | 90.87530 | 16433 ft | 404 kts | 282° |
| 2026-04-24 12:56 | 24.18789 | 90.84502 | 15953 ft | 396 kts | 264° |
| 2026-04-24 12:56 | 24.18333 | 90.81551 | 15478 ft | 390 kts | 258° |
| 2026-04-24 12:57 | 24.17757 | 90.78675 | 15009 ft | 383 kts | 257° |
| 2026-04-24 12:57 | 24.17178 | 90.75841 | 14545 ft | 378 kts | 257° |
| 2026-04-24 12:57 | 24.16613 | 90.73042 | 14088 ft | 372 kts | 258° |
| 2026-04-24 12:57 | 24.16062 | 90.70287 | 13642 ft | 367 kts | 258° |
| 2026-04-24 12:58 | 24.15523 | 90.67574 | 13141 ft | 362 kts | 258° |
| 2026-04-24 12:58 | 24.14989 | 90.64896 | 12641 ft | 358 kts | 257° |
| 2026-04-24 12:58 | 24.14217 | 90.62327 | 12187 ft | 353 kts | 249° |
| 2026-04-24 12:58 | 24.13267 | 90.59917 | 11827 ft | 345 kts | 247° |
| 2026-04-24 12:59 | 24.12291 | 90.57538 | 11467 ft | 338 kts | 246° |
| 2026-04-24 12:59 | 24.11334 | 90.55211 | 11105 ft | 332 kts | 247° |
| 2026-04-24 12:59 | 24.10396 | 90.52922 | 10755 ft | 326 kts | 247° |
| 2026-04-24 12:59 | 24.09473 | 90.50665 | 10405 ft | 321 kts | 247° |
| 2026-04-24 13:00 | 24.08570 | 90.48457 | 10058 ft | 316 kts | 247° |
| 2026-04-24 13:00 | 24.07692 | 90.46303 | 9722 ft | 309 kts | 247° |
| 2026-04-24 13:00 | 24.06834 | 90.44203 | 9344 ft | 294 kts | 247° |
| 2026-04-24 13:00 | 24.06072 | 90.42187 | 8949 ft | 279 kts | 255° |
| 2026-04-24 13:01 | 24.05878 | 90.40143 | 8582 ft | 265 kts | 279° |
| 2026-04-24 13:01 | 24.06493 | 90.38302 | 8244 ft | 256 kts | 303° |
| 2026-04-24 13:01 | 24.07716 | 90.36916 | 7903 ft | 252 kts | 320° |
| 2026-04-24 13:01 | 24.09112 | 90.35778 | 7537 ft | 248 kts | 323° |
| 2026-04-24 13:02 | 24.10495 | 90.34708 | 7189 ft | 245 kts | 323° |
| 2026-04-24 13:02 | 24.11867 | 90.33611 | 6844 ft | 241 kts | 319° |
| 2026-04-24 13:02 | 24.12875 | 90.32185 | 6528 ft | 236 kts | 292° |
| 2026-04-24 13:02 | 24.13054 | 90.30452 | 6220 ft | 234 kts | 261° |
| 2026-04-24 13:03 | 24.12390 | 90.28825 | 5950 ft | 232 kts | 239° |
| 2026-04-24 13:03 | 24.11461 | 90.27403 | 5679 ft | 228 kts | 236° |
| 2026-04-24 13:03 | 24.10525 | 90.26055 | 5394 ft | 224 kts | 235° |
| 2026-04-24 13:03 | 24.09594 | 90.24710 | 5128 ft | 220 kts | 235° |
| 2026-04-24 13:04 | 24.08661 | 90.23400 | 4886 ft | 217 kts | 229° |
| 2026-04-24 13:04 | 24.07404 | 90.22509 | 4620 ft | 218 kts | 196° |
| 2026-04-24 13:04 | 24.05918 | 90.22660 | 4360 ft | 218 kts | 157° |
| 2026-04-24 13:04 | 24.04649 | 90.23555 | 4114 ft | 216 kts | 144° |
| 2026-04-24 13:05 | 24.03460 | 90.24549 | 3889 ft | 213 kts | 145° |
| 2026-04-24 13:05 | 24.02294 | 90.25498 | 3648 ft | 210 kts | 145° |
| 2026-04-24 13:05 | 24.01123 | 90.26443 | 3415 ft | 208 kts | 145° |
| 2026-04-24 13:05 | 23.99964 | 90.27371 | 3189 ft | 205 kts | 145° |
| 2026-04-24 13:06 | 23.98826 | 90.28275 | 2950 ft | 200 kts | 145° |
| 2026-04-24 13:06 | 23.97709 | 90.29159 | 2736 ft | 195 kts | 145° |
| 2026-04-24 13:06 | 23.96629 | 90.30014 | 2555 ft | 188 kts | 144° |
| 2026-04-24 13:06 | 23.95583 | 90.30845 | 2350 ft | 183 kts | 144° |
| 2026-04-24 13:07 | 23.94559 | 90.31659 | 2124 ft | 180 kts | 144° |
| 2026-04-24 13:07 | 23.93563 | 90.32456 | 1881 ft | 173 kts | 144° |
| 2026-04-24 13:07 | 23.92624 | 90.33209 | 1667 ft | 166 kts | 144° |
| 2026-04-24 13:07 | 23.91706 | 90.33914 | 1471 ft | 157 kts | 145° |
| 2026-04-24 13:08 | 23.90840 | 90.34616 | 1278 ft | 153 kts | 143° |
| 2026-04-24 13:08 | 23.89992 | 90.35289 | 1112 ft | 149 kts | 144° |
| 2026-04-24 13:08 | 23.89160 | 90.35952 | 928 ft | 147 kts | 143° |
| 2026-04-24 13:09 | 23.87533 | 90.37233 | 576 ft | 141 kts | 143° |
| 2026-04-24 13:09 | 23.86751 | 90.37859 | 376 ft | 136 kts | 145° |
| 2026-04-24 13:09 | 23.86009 | 90.38448 | 192 ft | 131 kts | 143° |
| 2026-04-24 13:09 | 23.85282 | 90.39027 | 45 ft | 127 kts | 148° |
| 2026-04-24 13:10 | 23.84674 | 90.39508 | 41 ft | 81 kts | 143° |
| 2026-04-24 13:10 | 23.84331 | 90.39782 | 39 ft | 54 kts | 144° |
| 2026-04-24 13:10 | 23.84070 | 90.40049 | 41 ft | 43 kts | 119° |
| 2026-04-24 13:10 | 23.84000 | 90.40232 | 40 ft | 23 kts | 101° |
| 2026-04-24 13:11 | 23.84019 | 90.40405 | 40 ft | 24 kts | 67° |
| 2026-04-24 13:11 | 23.84092 | 90.40526 | 39 ft | 10 kts | 53° |
| 2026-04-24 13:11 | 23.84151 | 90.40570 | 40 ft | 11 kts | 4° |
| 2026-04-24 13:11 | 23.84225 | 90.40532 | 40 ft | 13 kts | 329° |
| 2026-04-24 13:12 | 23.84298 | 90.40556 | 40 ft | 12 kts | 47° |
| 2026-04-24 13:12 | 23.84368 | 90.40597 | 40 ft | 12 kts | 348° |
| 2026-04-24 13:12 | 23.84444 | 90.40545 | 40 ft | 14 kts | 324° |
| 2026-04-24 13:12 | 23.84509 | 90.40499 | 40 ft | 10 kts | 343° |
| 2026-04-24 13:13 | 23.84551 | 90.40522 | 40 ft | 5 kts | 46° |
| 2026-04-24 13:13 | 23.84568 | 90.40546 | 40 ft | 3 kts | 53° |
| 2026-04-24 13:13 | 23.84572 | 90.40551 | 40 ft | 0 kts | 53° |